sensor_id;sensor_type;location;lat;lon;timestamp;P1;durP1;ratioP1;P2;durP2;ratioP2
68449;SDS011;55434;39.570;2.652;2022-10-16T00:01:19;7.95;;;2.72;;
68449;SDS011;55434;39.570;2.652;2022-10-16T00:03:46;8.18;;;2.53;;
68449;SDS011;55434;39.570;2.652;2022-10-16T00:06:13;7.18;;;2.55;;
68449;SDS011;55434;39.570;2.652;2022-10-16T00:08:39;5.88;;;2.50;;
68449;SDS011;55434;39.570;2.652;2022-10-16T00:11:07;6.93;;;2.40;;
68449;SDS011;55434;39.570;2.652;2022-10-16T00:13:34;7.93;;;2.80;;
68449;SDS011;55434;39.570;2.652;2022-10-16T00:16:01;7.85;;;2.25;;
68449;SDS011;55434;39.570;2.652;2022-10-16T00:18:28;8.50;;;2.10;;
68449;SDS011;55434;39.570;2.652;2022-10-16T00:20:55;8.02;;;2.40;;
68449;SDS011;55434;39.570;2.652;2022-10-16T00:23:49;7.47;;;2.10;;
68449;SDS011;55434;39.570;2.652;2022-10-16T00:26:16;6.53;;;2.17;;
68449;SDS011;55434;39.570;2.652;2022-10-16T00:28:45;8.27;;;2.35;;
68449;SDS011;55434;39.570;2.652;2022-10-16T00:31:14;6.15;;;2.30;;
68449;SDS011;55434;39.570;2.652;2022-10-16T00:33:41;7.35;;;2.60;;
68449;SDS011;55434;39.570;2.652;2022-10-16T00:36:08;7.35;;;2.72;;
68449;SDS011;55434;39.570;2.652;2022-10-16T00:38:36;7.38;;;2.70;;
68449;SDS011;55434;39.570;2.652;2022-10-16T00:41:03;8.93;;;2.55;;
68449;SDS011;55434;39.570;2.652;2022-10-16T00:43:37;5.82;;;2.35;;
68449;SDS011;55434;39.570;2.652;2022-10-16T00:46:10;8.15;;;2.70;;
68449;SDS011;55434;39.570;2.652;2022-10-16T00:49:13;7.57;;;2.28;;
68449;SDS011;55434;39.570;2.652;2022-10-16T00:51:45;7.18;;;2.65;;
68449;SDS011;55434;39.570;2.652;2022-10-16T00:54:24;7.47;;;2.40;;
68449;SDS011;55434;39.570;2.652;2022-10-16T00:56:55;7.57;;;2.00;;
68449;SDS011;55434;39.570;2.652;2022-10-16T00:59:27;6.18;;;1.92;;
68449;SDS011;55434;39.570;2.652;2022-10-16T01:01:55;10.63;;;3.83;;
68449;SDS011;55434;39.570;2.652;2022-10-16T01:04:21;5.30;;;1.80;;
68449;SDS011;55434;39.570;2.652;2022-10-16T01:14:44;5.68;;;1.85;;
68449;SDS011;55434;39.570;2.652;2022-10-16T01:20:18;8.25;;;2.00;;
68449;SDS011;55434;39.570;2.652;2022-10-16T01:28:18;6.78;;;2.05;;
68449;SDS011;55434;39.570;2.652;2022-10-16T01:30:48;8.40;;;1.95;;
68449;SDS011;55434;39.570;2.652;2022-10-16T01:33:22;8.50;;;2.38;;
68449;SDS011;55434;39.570;2.652;2022-10-16T01:35:56;7.87;;;2.20;;
68449;SDS011;55434;39.570;2.652;2022-10-16T01:38:37;9.57;;;2.00;;
68449;SDS011;55434;39.570;2.652;2022-10-16T01:41:15;9.13;;;2.42;;
68449;SDS011;55434;39.570;2.652;2022-10-16T01:43:45;9.15;;;2.45;;
68449;SDS011;55434;39.570;2.652;2022-10-16T01:46:15;8.63;;;2.20;;
68449;SDS011;55434;39.570;2.652;2022-10-16T01:48:43;9.37;;;2.50;;
68449;SDS011;55434;39.570;2.652;2022-10-16T01:51:11;8.60;;;2.50;;
68449;SDS011;55434;39.570;2.652;2022-10-16T01:53:38;7.57;;;2.05;;
68449;SDS011;55434;39.570;2.652;2022-10-16T01:56:08;9.05;;;2.38;;
68449;SDS011;55434;39.570;2.652;2022-10-16T01:58:41;10.90;;;2.83;;
68449;SDS011;55434;39.570;2.652;2022-10-16T02:01:11;7.77;;;2.37;;
68449;SDS011;55434;39.570;2.652;2022-10-16T02:03:41;9.75;;;2.60;;
68449;SDS011;55434;39.570;2.652;2022-10-16T02:06:09;8.82;;;2.65;;
68449;SDS011;55434;39.570;2.652;2022-10-16T02:08:35;6.07;;;2.22;;
68449;SDS011;55434;39.570;2.652;2022-10-16T02:11:01;8.00;;;2.37;;
68449;SDS011;55434;39.570;2.652;2022-10-16T02:16:20;8.52;;;2.22;;
68449;SDS011;55434;39.570;2.652;2022-10-16T02:18:46;6.80;;;2.10;;
68449;SDS011;55434;39.570;2.652;2022-10-16T02:21:23;9.43;;;1.90;;
68449;SDS011;55434;39.570;2.652;2022-10-16T02:29:39;5.80;;;2.03;;
68449;SDS011;55434;39.570;2.652;2022-10-16T02:32:15;6.88;;;2.55;;
68449;SDS011;55434;39.570;2.652;2022-10-16T02:34:45;9.13;;;2.15;;
68449;SDS011;55434;39.570;2.652;2022-10-16T02:37:13;9.60;;;2.28;;
68449;SDS011;55434;39.570;2.652;2022-10-16T02:39:40;6.85;;;2.38;;
68449;SDS011;55434;39.570;2.652;2022-10-16T02:42:11;8.52;;;2.00;;
68449;SDS011;55434;39.570;2.652;2022-10-16T02:44:38;9.88;;;2.42;;
68449;SDS011;55434;39.570;2.652;2022-10-16T02:47:03;8.65;;;1.95;;
68449;SDS011;55434;39.570;2.652;2022-10-16T02:49:29;8.07;;;1.83;;
68449;SDS011;55434;39.570;2.652;2022-10-16T02:51:55;6.18;;;1.95;;
68449;SDS011;55434;39.570;2.652;2022-10-16T02:54:23;7.53;;;2.17;;
68449;SDS011;55434;39.570;2.652;2022-10-16T02:56:49;8.05;;;2.03;;
68449;SDS011;55434;39.570;2.652;2022-10-16T02:59:15;7.03;;;1.87;;
68449;SDS011;55434;39.570;2.652;2022-10-16T03:01:41;7.50;;;2.00;;
68449;SDS011;55434;39.570;2.652;2022-10-16T03:04:06;7.35;;;2.00;;
68449;SDS011;55434;39.570;2.652;2022-10-16T03:06:32;8.37;;;1.83;;
68449;SDS011;55434;39.570;2.652;2022-10-16T03:08:58;6.50;;;2.00;;
68449;SDS011;55434;39.570;2.652;2022-10-16T03:11:23;9.38;;;1.80;;
68449;SDS011;55434;39.570;2.652;2022-10-16T03:13:49;9.00;;;1.60;;
68449;SDS011;55434;39.570;2.652;2022-10-16T03:16:15;8.25;;;1.80;;
68449;SDS011;55434;39.570;2.652;2022-10-16T03:18:43;5.80;;;1.90;;
68449;SDS011;55434;39.570;2.652;2022-10-16T03:21:15;6.72;;;1.90;;
68449;SDS011;55434;39.570;2.652;2022-10-16T03:23:41;7.10;;;1.77;;
68449;SDS011;55434;39.570;2.652;2022-10-16T03:26:07;6.03;;;1.97;;
68449;SDS011;55434;39.570;2.652;2022-10-16T03:28:33;7.25;;;1.90;;
68449;SDS011;55434;39.570;2.652;2022-10-16T03:30:58;6.33;;;1.70;;
68449;SDS011;55434;39.570;2.652;2022-10-16T03:33:24;10.18;;;2.00;;
68449;SDS011;55434;39.570;2.652;2022-10-16T03:35:53;9.50;;;2.10;;
68449;SDS011;55434;39.570;2.652;2022-10-16T03:38:19;7.88;;;2.10;;
68449;SDS011;55434;39.570;2.652;2022-10-16T03:40:46;6.85;;;2.20;;
68449;SDS011;55434;39.570;2.652;2022-10-16T03:43:11;9.60;;;2.20;;
68449;SDS011;55434;39.570;2.652;2022-10-16T03:45:37;7.05;;;2.15;;
68449;SDS011;55434;39.570;2.652;2022-10-16T03:48:06;7.55;;;2.10;;
68449;SDS011;55434;39.570;2.652;2022-10-16T03:50:31;9.90;;;1.90;;
68449;SDS011;55434;39.570;2.652;2022-10-16T03:52:57;9.67;;;2.30;;
68449;SDS011;55434;39.570;2.652;2022-10-16T03:55:22;8.50;;;2.30;;
68449;SDS011;55434;39.570;2.652;2022-10-16T03:57:48;6.53;;;2.03;;
68449;SDS011;55434;39.570;2.652;2022-10-16T04:00:14;6.33;;;2.27;;
68449;SDS011;55434;39.570;2.652;2022-10-16T04:02:39;6.23;;;1.90;;
68449;SDS011;55434;39.570;2.652;2022-10-16T04:05:06;6.78;;;1.80;;
68449;SDS011;55434;39.570;2.652;2022-10-16T04:07:32;8.52;;;2.35;;
68449;SDS011;55434;39.570;2.652;2022-10-16T04:09:58;6.87;;;2.33;;
68449;SDS011;55434;39.570;2.652;2022-10-16T04:12:24;8.52;;;2.25;;
68449;SDS011;55434;39.570;2.652;2022-10-16T04:14:51;9.90;;;2.40;;
68449;SDS011;55434;39.570;2.652;2022-10-16T04:17:16;8.37;;;2.20;;
68449;SDS011;55434;39.570;2.652;2022-10-16T04:19:42;7.47;;;2.35;;
68449;SDS011;55434;39.570;2.652;2022-10-16T04:22:11;8.30;;;2.00;;
68449;SDS011;55434;39.570;2.652;2022-10-16T04:24:36;7.68;;;2.20;;
68449;SDS011;55434;39.570;2.652;2022-10-16T04:27:02;8.53;;;2.23;;
68449;SDS011;55434;39.570;2.652;2022-10-16T04:29:28;9.13;;;2.58;;
68449;SDS011;55434;39.570;2.652;2022-10-16T04:31:54;8.40;;;2.20;;
68449;SDS011;55434;39.570;2.652;2022-10-16T04:34:19;8.83;;;2.07;;
68449;SDS011;55434;39.570;2.652;2022-10-16T04:36:48;6.63;;;2.13;;
68449;SDS011;55434;39.570;2.652;2022-10-16T04:39:14;6.35;;;2.22;;
68449;SDS011;55434;39.570;2.652;2022-10-16T04:41:40;7.15;;;2.13;;
68449;SDS011;55434;39.570;2.652;2022-10-16T04:44:06;6.97;;;2.22;;
68449;SDS011;55434;39.570;2.652;2022-10-16T04:46:34;8.17;;;2.20;;
68449;SDS011;55434;39.570;2.652;2022-10-16T04:49:00;6.70;;;2.03;;
68449;SDS011;55434;39.570;2.652;2022-10-16T04:51:26;11.73;;;2.50;;
68449;SDS011;55434;39.570;2.652;2022-10-16T04:53:53;8.80;;;2.22;;
68449;SDS011;55434;39.570;2.652;2022-10-16T04:56:20;6.22;;;2.20;;
68449;SDS011;55434;39.570;2.652;2022-10-16T04:58:46;5.82;;;2.10;;
68449;SDS011;55434;39.570;2.652;2022-10-16T05:01:12;10.37;;;2.20;;
68449;SDS011;55434;39.570;2.652;2022-10-16T05:03:39;7.82;;;2.15;;
68449;SDS011;55434;39.570;2.652;2022-10-16T05:06:05;7.00;;;2.40;;
68449;SDS011;55434;39.570;2.652;2022-10-16T05:08:32;9.50;;;2.00;;
68449;SDS011;55434;39.570;2.652;2022-10-16T05:10:58;9.52;;;2.50;;
68449;SDS011;55434;39.570;2.652;2022-10-16T05:13:24;8.65;;;2.28;;
68449;SDS011;55434;39.570;2.652;2022-10-16T05:15:49;8.53;;;2.53;;
68449;SDS011;55434;39.570;2.652;2022-10-16T05:18:15;6.67;;;2.20;;
68449;SDS011;55434;39.570;2.652;2022-10-16T05:20:41;10.20;;;2.30;;
68449;SDS011;55434;39.570;2.652;2022-10-16T05:23:10;9.88;;;2.67;;
68449;SDS011;55434;39.570;2.652;2022-10-16T05:25:36;7.32;;;2.55;;
68449;SDS011;55434;39.570;2.652;2022-10-16T05:28:03;10.15;;;2.60;;
68449;SDS011;55434;39.570;2.652;2022-10-16T05:30:29;8.17;;;2.23;;
68449;SDS011;55434;39.570;2.652;2022-10-16T05:32:54;7.95;;;2.70;;
68449;SDS011;55434;39.570;2.652;2022-10-16T05:35:20;7.33;;;2.50;;
68449;SDS011;55434;39.570;2.652;2022-10-16T05:37:46;7.68;;;2.70;;
68449;SDS011;55434;39.570;2.652;2022-10-16T05:40:15;8.60;;;2.45;;
68449;SDS011;55434;39.570;2.652;2022-10-16T05:42:41;7.80;;;2.35;;
68449;SDS011;55434;39.570;2.652;2022-10-16T05:45:08;11.20;;;2.73;;
68449;SDS011;55434;39.570;2.652;2022-10-16T05:47:35;8.38;;;2.42;;
68449;SDS011;55434;39.570;2.652;2022-10-16T05:50:02;6.75;;;2.20;;
68449;SDS011;55434;39.570;2.652;2022-10-16T05:52:29;8.60;;;2.60;;
68449;SDS011;55434;39.570;2.652;2022-10-16T05:54:55;7.20;;;2.30;;
68449;SDS011;55434;39.570;2.652;2022-10-16T05:57:20;10.73;;;2.73;;
68449;SDS011;55434;39.570;2.652;2022-10-16T05:59:46;7.57;;;2.17;;
68449;SDS011;55434;39.570;2.652;2022-10-16T06:02:12;11.10;;;2.67;;
68449;SDS011;55434;39.570;2.652;2022-10-16T06:04:39;7.10;;;2.45;;
68449;SDS011;55434;39.570;2.652;2022-10-16T06:07:04;8.65;;;2.80;;
68449;SDS011;55434;39.570;2.652;2022-10-16T06:09:30;10.77;;;2.83;;
68449;SDS011;55434;39.570;2.652;2022-10-16T06:11:59;9.40;;;2.88;;
68449;SDS011;55434;39.570;2.652;2022-10-16T06:14:24;8.37;;;2.57;;
68449;SDS011;55434;39.570;2.652;2022-10-16T06:16:53;8.25;;;3.03;;
68449;SDS011;55434;39.570;2.652;2022-10-16T06:19:18;7.82;;;2.83;;
68449;SDS011;55434;39.570;2.652;2022-10-16T06:21:44;9.73;;;2.47;;
68449;SDS011;55434;39.570;2.652;2022-10-16T06:24:10;8.10;;;2.70;;
68449;SDS011;55434;39.570;2.652;2022-10-16T06:26:36;11.33;;;3.20;;
68449;SDS011;55434;39.570;2.652;2022-10-16T06:29:03;12.05;;;2.55;;
68449;SDS011;55434;39.570;2.652;2022-10-16T06:31:28;12.40;;;3.40;;
68449;SDS011;55434;39.570;2.652;2022-10-16T06:33:56;9.77;;;3.20;;
68449;SDS011;55434;39.570;2.652;2022-10-16T06:36:25;7.13;;;2.80;;
68449;SDS011;55434;39.570;2.652;2022-10-16T06:38:54;9.63;;;3.50;;
68449;SDS011;55434;39.570;2.652;2022-10-16T06:41:20;11.73;;;3.57;;
68449;SDS011;55434;39.570;2.652;2022-10-16T06:43:48;10.48;;;2.97;;
68449;SDS011;55434;39.570;2.652;2022-10-16T06:46:15;11.60;;;3.80;;
68449;SDS011;55434;39.570;2.652;2022-10-16T06:48:46;10.95;;;3.20;;
68449;SDS011;55434;39.570;2.652;2022-10-16T06:51:13;12.23;;;3.25;;
68449;SDS011;55434;39.570;2.652;2022-10-16T06:53:41;12.38;;;3.35;;
68449;SDS011;55434;39.570;2.652;2022-10-16T06:58:42;13.77;;;4.35;;
68449;SDS011;55434;39.570;2.652;2022-10-16T07:01:08;10.18;;;4.15;;
68449;SDS011;55434;39.570;2.652;2022-10-16T07:03:38;11.10;;;3.97;;
68449;SDS011;55434;39.570;2.652;2022-10-16T07:06:08;12.23;;;3.13;;
68449;SDS011;55434;39.570;2.652;2022-10-16T07:08:37;15.10;;;4.32;;
68449;SDS011;55434;39.570;2.652;2022-10-16T07:11:06;8.32;;;3.30;;
68449;SDS011;55434;39.570;2.652;2022-10-16T07:13:34;10.43;;;3.42;;
68449;SDS011;55434;39.570;2.652;2022-10-16T07:16:07;12.63;;;3.88;;
68449;SDS011;55434;39.570;2.652;2022-10-16T07:18:35;10.30;;;3.30;;
68449;SDS011;55434;39.570;2.652;2022-10-16T07:21:03;10.88;;;3.00;;
68449;SDS011;55434;39.570;2.652;2022-10-16T07:23:32;10.40;;;3.08;;
68449;SDS011;55434;39.570;2.652;2022-10-16T07:26:01;8.55;;;3.10;;
68449;SDS011;55434;39.570;2.652;2022-10-16T07:28:29;11.40;;;3.80;;
68449;SDS011;55434;39.570;2.652;2022-10-16T07:31:04;7.97;;;3.40;;
68449;SDS011;55434;39.570;2.652;2022-10-16T07:33:31;10.90;;;3.50;;
68449;SDS011;55434;39.570;2.652;2022-10-16T07:35:59;12.10;;;3.70;;
68449;SDS011;55434;39.570;2.652;2022-10-16T07:38:25;9.10;;;3.65;;
68449;SDS011;55434;39.570;2.652;2022-10-16T07:41:01;12.37;;;3.70;;
68449;SDS011;55434;39.570;2.652;2022-10-16T07:43:28;11.30;;;4.00;;
68449;SDS011;55434;39.570;2.652;2022-10-16T07:45:54;10.68;;;3.50;;
68449;SDS011;55434;39.570;2.652;2022-10-16T07:48:21;14.07;;;4.47;;
68449;SDS011;55434;39.570;2.652;2022-10-16T07:50:47;13.05;;;4.32;;
68449;SDS011;55434;39.570;2.652;2022-10-16T07:53:13;14.60;;;4.70;;
68449;SDS011;55434;39.570;2.652;2022-10-16T07:55:39;12.38;;;4.57;;
68449;SDS011;55434;39.570;2.652;2022-10-16T07:58:05;12.77;;;4.90;;
68449;SDS011;55434;39.570;2.652;2022-10-16T08:00:31;10.38;;;5.00;;
68449;SDS011;55434;39.570;2.652;2022-10-16T08:02:58;11.07;;;4.95;;
68449;SDS011;55434;39.570;2.652;2022-10-16T08:05:30;14.48;;;5.93;;
68449;SDS011;55434;39.570;2.652;2022-10-16T08:07:57;17.65;;;6.53;;
68449;SDS011;55434;39.570;2.652;2022-10-16T08:10:24;15.57;;;6.60;;
68449;SDS011;55434;39.570;2.652;2022-10-16T08:12:51;19.25;;;7.32;;
68449;SDS011;55434;39.570;2.652;2022-10-16T08:15:18;18.53;;;7.60;;
68449;SDS011;55434;39.570;2.652;2022-10-16T08:17:44;17.70;;;6.88;;
68449;SDS011;55434;39.570;2.652;2022-10-16T08:20:18;19.40;;;9.48;;
68449;SDS011;55434;39.570;2.652;2022-10-16T08:22:44;18.10;;;7.67;;
68449;SDS011;55434;39.570;2.652;2022-10-16T08:25:10;19.50;;;9.23;;
68449;SDS011;55434;39.570;2.652;2022-10-16T08:27:35;17.10;;;9.70;;
68449;SDS011;55434;39.570;2.652;2022-10-16T08:30:01;22.08;;;9.73;;
68449;SDS011;55434;39.570;2.652;2022-10-16T08:32:27;19.35;;;9.63;;
68449;SDS011;55434;39.570;2.652;2022-10-16T08:34:53;19.60;;;8.45;;
68449;SDS011;55434;39.570;2.652;2022-10-16T08:37:22;15.38;;;7.53;;
68449;SDS011;55434;39.570;2.652;2022-10-16T08:40:11;16.67;;;5.63;;
68449;SDS011;55434;39.570;2.652;2022-10-16T08:46:04;11.02;;;4.50;;
68449;SDS011;55434;39.570;2.652;2022-10-16T08:48:52;12.77;;;3.20;;
68449;SDS011;55434;39.570;2.652;2022-10-16T08:51:24;11.35;;;3.30;;
68449;SDS011;55434;39.570;2.652;2022-10-16T08:53:56;12.87;;;4.17;;
68449;SDS011;55434;39.570;2.652;2022-10-16T08:56:43;10.23;;;3.60;;
68449;SDS011;55434;39.570;2.652;2022-10-16T08:59:11;11.68;;;4.40;;
68449;SDS011;55434;39.570;2.652;2022-10-16T09:01:45;10.27;;;4.03;;
68449;SDS011;55434;39.570;2.652;2022-10-16T09:09:45;11.13;;;3.60;;
68449;SDS011;55434;39.570;2.652;2022-10-16T09:12:21;8.57;;;2.88;;
68449;SDS011;55434;39.570;2.652;2022-10-16T09:20:18;9.07;;;3.03;;
68449;SDS011;55434;39.570;2.652;2022-10-16T09:25:29;10.50;;;2.50;;
68449;SDS011;55434;39.570;2.652;2022-10-16T09:27:56;9.95;;;2.88;;
68449;SDS011;55434;39.570;2.652;2022-10-16T09:30:22;8.80;;;2.70;;
68449;SDS011;55434;39.570;2.652;2022-10-16T09:32:51;10.50;;;3.03;;
68449;SDS011;55434;39.570;2.652;2022-10-16T09:36:01;10.05;;;3.30;;
68449;SDS011;55434;39.570;2.652;2022-10-16T09:38:09;10.50;;;3.00;;
68449;SDS011;55434;39.570;2.652;2022-10-16T09:41:03;9.63;;;2.78;;
68449;SDS011;55434;39.570;2.652;2022-10-16T09:46:27;8.80;;;2.78;;
68449;SDS011;55434;39.570;2.652;2022-10-16T09:52:03;7.70;;;3.00;;
68449;SDS011;55434;39.570;2.652;2022-10-16T09:54:30;9.27;;;3.38;;
68449;SDS011;55434;39.570;2.652;2022-10-16T09:57:06;8.63;;;3.47;;
68449;SDS011;55434;39.570;2.652;2022-10-16T09:59:33;9.00;;;3.28;;
68449;SDS011;55434;39.570;2.652;2022-10-16T10:02:01;10.48;;;3.80;;
68449;SDS011;55434;39.570;2.652;2022-10-16T10:04:37;12.35;;;4.25;;
68449;SDS011;55434;39.570;2.652;2022-10-16T10:07:06;10.43;;;4.07;;
68449;SDS011;55434;39.570;2.652;2022-10-16T10:09:44;7.55;;;3.92;;
68449;SDS011;55434;39.570;2.652;2022-10-16T10:12:29;15.15;;;4.45;;
68449;SDS011;55434;39.570;2.652;2022-10-16T10:15:10;11.93;;;4.30;;
68449;SDS011;55434;39.570;2.652;2022-10-16T10:20:46;12.77;;;5.65;;
68449;SDS011;55434;39.570;2.652;2022-10-16T10:23:24;10.63;;;5.90;;
68449;SDS011;55434;39.570;2.652;2022-10-16T10:28:47;11.40;;;5.80;;
68449;SDS011;55434;39.570;2.652;2022-10-16T10:31:21;11.73;;;6.07;;
68449;SDS011;55434;39.570;2.652;2022-10-16T10:34:13;9.05;;;5.40;;
68449;SDS011;55434;39.570;2.652;2022-10-16T10:39:52;12.75;;;5.75;;
68449;SDS011;55434;39.570;2.652;2022-10-16T10:42:28;11.88;;;5.57;;
68449;SDS011;55434;39.570;2.652;2022-10-16T10:47:56;9.27;;;4.78;;
68449;SDS011;55434;39.570;2.652;2022-10-16T10:50:31;9.33;;;4.73;;
68449;SDS011;55434;39.570;2.652;2022-10-16T10:59:09;11.40;;;4.80;;
68449;SDS011;55434;39.570;2.652;2022-10-16T11:01:52;11.60;;;5.18;;
68449;SDS011;55434;39.570;2.652;2022-10-16T11:07:13;9.40;;;5.22;;
68449;SDS011;55434;39.570;2.652;2022-10-16T11:09:49;9.52;;;4.70;;
68449;SDS011;55434;39.570;2.652;2022-10-16T11:12:27;11.50;;;5.22;;
68449;SDS011;55434;39.570;2.652;2022-10-16T11:15:17;7.70;;;4.60;;
68449;SDS011;55434;39.570;2.652;2022-10-16T11:18:06;10.13;;;4.70;;
68449;SDS011;55434;39.570;2.652;2022-10-16T11:20:34;8.70;;;4.13;;
68449;SDS011;55434;39.570;2.652;2022-10-16T11:23:14;10.55;;;4.13;;
68449;SDS011;55434;39.570;2.652;2022-10-16T11:25:49;7.72;;;4.07;;
68449;SDS011;55434;39.570;2.652;2022-10-16T11:30:50;9.17;;;4.57;;
68449;SDS011;55434;39.570;2.652;2022-10-16T11:36:12;9.55;;;4.93;;
68449;SDS011;55434;39.570;2.652;2022-10-16T11:44:32;9.13;;;4.53;;
68449;SDS011;55434;39.570;2.652;2022-10-16T11:50:01;10.18;;;5.47;;
68449;SDS011;55434;39.570;2.652;2022-10-16T11:53:09;12.43;;;5.75;;
68449;SDS011;55434;39.570;2.652;2022-10-16T11:55:39;11.38;;;5.10;;
68449;SDS011;55434;39.570;2.652;2022-10-16T12:01:05;10.60;;;4.50;;
68449;SDS011;55434;39.570;2.652;2022-10-16T12:09:34;11.90;;;5.80;;
68449;SDS011;55434;39.570;2.652;2022-10-16T12:12:26;10.67;;;5.97;;
68449;SDS011;55434;39.570;2.652;2022-10-16T12:15:03;10.23;;;5.18;;
68449;SDS011;55434;39.570;2.652;2022-10-16T12:17:45;10.07;;;5.07;;
68449;SDS011;55434;39.570;2.652;2022-10-16T12:22:37;10.33;;;5.50;;
68449;SDS011;55434;39.570;2.652;2022-10-16T12:25:53;9.75;;;4.55;;
68449;SDS011;55434;39.570;2.652;2022-10-16T12:30:40;10.18;;;5.15;;
68449;SDS011;55434;39.570;2.652;2022-10-16T12:33:22;11.13;;;5.60;;
68449;SDS011;55434;39.570;2.652;2022-10-16T12:35:54;12.00;;;5.72;;
68449;SDS011;55434;39.570;2.652;2022-10-16T12:38:26;11.88;;;5.75;;
68449;SDS011;55434;39.570;2.652;2022-10-16T12:41:01;9.90;;;4.97;;
68449;SDS011;55434;39.570;2.652;2022-10-16T12:43:37;12.23;;;5.53;;
68449;SDS011;55434;39.570;2.652;2022-10-16T12:48:33;10.88;;;5.43;;
68449;SDS011;55434;39.570;2.652;2022-10-16T12:51:09;11.50;;;5.30;;
68449;SDS011;55434;39.570;2.652;2022-10-16T12:53:46;13.35;;;5.28;;
68449;SDS011;55434;39.570;2.652;2022-10-16T13:05:14;10.63;;;4.50;;
68449;SDS011;55434;39.570;2.652;2022-10-16T13:11:17;12.23;;;4.40;;
68449;SDS011;55434;39.570;2.652;2022-10-16T13:13:56;10.18;;;3.75;;
68449;SDS011;55434;39.570;2.652;2022-10-16T13:19:47;12.00;;;4.32;;
68449;SDS011;55434;39.570;2.652;2022-10-16T13:22:45;10.15;;;4.13;;
68449;SDS011;55434;39.570;2.652;2022-10-16T13:25:31;10.13;;;4.18;;
68449;SDS011;55434;39.570;2.652;2022-10-16T13:28:17;9.77;;;4.00;;
68449;SDS011;55434;39.570;2.652;2022-10-16T13:30:53;11.05;;;3.70;;
68449;SDS011;55434;39.570;2.652;2022-10-16T13:33:37;9.60;;;3.67;;
68449;SDS011;55434;39.570;2.652;2022-10-16T13:36:05;11.27;;;3.50;;
68449;SDS011;55434;39.570;2.652;2022-10-16T13:38:35;8.60;;;3.45;;
68449;SDS011;55434;39.570;2.652;2022-10-16T13:41:15;11.60;;;4.07;;
68449;SDS011;55434;39.570;2.652;2022-10-16T13:43:54;9.23;;;3.30;;
68449;SDS011;55434;39.570;2.652;2022-10-16T13:46:22;8.93;;;3.38;;
68449;SDS011;55434;39.570;2.652;2022-10-16T13:49:02;8.80;;;3.45;;
68449;SDS011;55434;39.570;2.652;2022-10-16T13:51:31;9.40;;;3.50;;
68449;SDS011;55434;39.570;2.652;2022-10-16T13:53:59;8.85;;;3.50;;
68449;SDS011;55434;39.570;2.652;2022-10-16T13:56:27;11.05;;;4.13;;
68449;SDS011;55434;39.570;2.652;2022-10-16T13:59:37;13.00;;;3.88;;
68449;SDS011;55434;39.570;2.652;2022-10-16T14:01:49;11.35;;;3.33;;
68449;SDS011;55434;39.570;2.652;2022-10-16T14:04:23;10.23;;;3.50;;
68449;SDS011;55434;39.570;2.652;2022-10-16T14:06:50;12.10;;;2.75;;
68449;SDS011;55434;39.570;2.652;2022-10-16T14:11:54;10.00;;;3.78;;
68449;SDS011;55434;39.570;2.652;2022-10-16T14:14:22;10.30;;;3.78;;
68449;SDS011;55434;39.570;2.652;2022-10-16T14:16:49;12.18;;;3.72;;
68449;SDS011;55434;39.570;2.652;2022-10-16T14:19:20;9.85;;;2.90;;
68449;SDS011;55434;39.570;2.652;2022-10-16T14:21:52;10.20;;;3.92;;
68449;SDS011;55434;39.570;2.652;2022-10-16T14:24:25;10.43;;;3.60;;
68449;SDS011;55434;39.570;2.652;2022-10-16T14:26:52;7.90;;;3.22;;
68449;SDS011;55434;39.570;2.652;2022-10-16T14:29:21;11.73;;;3.28;;
68449;SDS011;55434;39.570;2.652;2022-10-16T14:32:22;9.07;;;3.20;;
68449;SDS011;55434;39.570;2.652;2022-10-16T14:34:52;9.45;;;3.53;;
68449;SDS011;55434;39.570;2.652;2022-10-16T14:37:26;12.25;;;3.40;;
68449;SDS011;55434;39.570;2.652;2022-10-16T14:39:56;10.93;;;3.05;;
68449;SDS011;55434;39.570;2.652;2022-10-16T14:42:23;7.68;;;2.95;;
68449;SDS011;55434;39.570;2.652;2022-10-16T14:44:50;7.97;;;2.93;;
68449;SDS011;55434;39.570;2.652;2022-10-16T14:47:23;14.52;;;3.30;;
68449;SDS011;55434;39.570;2.652;2022-10-16T14:49:52;9.38;;;3.58;;
68449;SDS011;55434;39.570;2.652;2022-10-16T14:52:20;11.32;;;3.30;;
68449;SDS011;55434;39.570;2.652;2022-10-16T14:54:49;8.73;;;3.22;;
68449;SDS011;55434;39.570;2.652;2022-10-16T14:57:26;9.40;;;3.27;;
68449;SDS011;55434;39.570;2.652;2022-10-16T14:59:54;8.02;;;3.20;;
68449;SDS011;55434;39.570;2.652;2022-10-16T15:05:10;8.83;;;2.70;;
68449;SDS011;55434;39.570;2.652;2022-10-16T15:07:45;10.77;;;2.92;;
68449;SDS011;55434;39.570;2.652;2022-10-16T15:10:11;12.52;;;3.00;;
68449;SDS011;55434;39.570;2.652;2022-10-16T15:12:38;12.57;;;3.47;;
68449;SDS011;55434;39.570;2.652;2022-10-16T15:17:49;7.15;;;2.97;;
68449;SDS011;55434;39.570;2.652;2022-10-16T15:20:24;9.63;;;3.17;;
68449;SDS011;55434;39.570;2.652;2022-10-16T15:22:53;8.63;;;3.17;;
68449;SDS011;55434;39.570;2.652;2022-10-16T15:25:36;10.27;;;3.10;;
68449;SDS011;55434;39.570;2.652;2022-10-16T15:28:07;8.13;;;3.47;;
68449;SDS011;55434;39.570;2.652;2022-10-16T15:30:34;13.43;;;2.97;;
68449;SDS011;55434;39.570;2.652;2022-10-16T15:33:01;11.18;;;2.75;;
68449;SDS011;55434;39.570;2.652;2022-10-16T15:35:27;8.82;;;3.00;;
68449;SDS011;55434;39.570;2.652;2022-10-16T15:37:53;8.48;;;3.05;;
68449;SDS011;55434;39.570;2.652;2022-10-16T15:40:20;8.88;;;3.08;;
68449;SDS011;55434;39.570;2.652;2022-10-16T15:42:56;9.73;;;3.08;;
68449;SDS011;55434;39.570;2.652;2022-10-16T15:45:24;12.70;;;3.50;;
68449;SDS011;55434;39.570;2.652;2022-10-16T15:47:55;8.68;;;2.53;;
68449;SDS011;55434;39.570;2.652;2022-10-16T15:50:24;12.57;;;2.97;;
68449;SDS011;55434;39.570;2.652;2022-10-16T15:52:50;14.85;;;3.83;;
68449;SDS011;55434;39.570;2.652;2022-10-16T15:55:18;9.65;;;3.17;;
68449;SDS011;55434;39.570;2.652;2022-10-16T15:57:46;10.48;;;3.15;;
68449;SDS011;55434;39.570;2.652;2022-10-16T16:00:15;9.90;;;3.10;;
68449;SDS011;55434;39.570;2.652;2022-10-16T16:02:43;9.53;;;2.90;;
68449;SDS011;55434;39.570;2.652;2022-10-16T16:05:09;12.23;;;3.33;;
68449;SDS011;55434;39.570;2.652;2022-10-16T16:07:39;14.50;;;3.60;;
68449;SDS011;55434;39.570;2.652;2022-10-16T16:10:06;11.80;;;3.15;;
68449;SDS011;55434;39.570;2.652;2022-10-16T16:12:33;14.98;;;3.45;;
68449;SDS011;55434;39.570;2.652;2022-10-16T16:15:00;11.17;;;3.27;;
68449;SDS011;55434;39.570;2.652;2022-10-16T16:17:25;9.57;;;2.38;;
68449;SDS011;55434;39.570;2.652;2022-10-16T16:19:51;9.43;;;2.40;;
68449;SDS011;55434;39.570;2.652;2022-10-16T16:22:17;11.50;;;3.17;;
68449;SDS011;55434;39.570;2.652;2022-10-16T16:24:43;10.43;;;2.70;;
68449;SDS011;55434;39.570;2.652;2022-10-16T16:27:09;11.63;;;3.63;;
68449;SDS011;55434;39.570;2.652;2022-10-16T16:29:35;13.32;;;3.20;;
68449;SDS011;55434;39.570;2.652;2022-10-16T16:32:01;12.32;;;2.85;;
68449;SDS011;55434;39.570;2.652;2022-10-16T16:34:27;8.90;;;2.58;;
68449;SDS011;55434;39.570;2.652;2022-10-16T16:36:55;11.13;;;2.90;;
68449;SDS011;55434;39.570;2.652;2022-10-16T16:39:27;12.02;;;2.78;;
68449;SDS011;55434;39.570;2.652;2022-10-16T16:41:55;12.23;;;2.80;;
68449;SDS011;55434;39.570;2.652;2022-10-16T16:44:27;11.88;;;3.05;;
68449;SDS011;55434;39.570;2.652;2022-10-16T16:47:04;13.88;;;2.83;;
68449;SDS011;55434;39.570;2.652;2022-10-16T16:49:30;13.73;;;3.00;;
68449;SDS011;55434;39.570;2.652;2022-10-16T16:51:56;14.68;;;3.60;;
68449;SDS011;55434;39.570;2.652;2022-10-16T16:54:22;12.60;;;3.17;;
68449;SDS011;55434;39.570;2.652;2022-10-16T16:56:51;18.23;;;3.50;;
68449;SDS011;55434;39.570;2.652;2022-10-16T16:59:18;11.57;;;2.92;;
68449;SDS011;55434;39.570;2.652;2022-10-16T17:01:47;14.77;;;3.50;;
68449;SDS011;55434;39.570;2.652;2022-10-16T17:04:14;16.13;;;3.88;;